sensor_id;sensor_type;location;lat;lon;timestamp;P1;durP1;ratioP1;P2;durP2;ratioP2
5295;SDS011;2670;42.720;23.336;2023-05-13T00:00:25;7.10;;;3.70;;
5295;SDS011;2670;42.720;23.336;2023-05-13T00:02:52;6.80;;;3.27;;
5295;SDS011;2670;42.720;23.336;2023-05-13T00:05:19;6.13;;;2.97;;
5295;SDS011;2670;42.720;23.336;2023-05-13T00:07:46;5.03;;;3.77;;
5295;SDS011;2670;42.720;23.336;2023-05-13T00:10:14;5.00;;;3.40;;
5295;SDS011;2670;42.720;23.336;2023-05-13T00:12:40;4.30;;;3.17;;
5295;SDS011;2670;42.720;23.336;2023-05-13T00:15:08;6.87;;;3.63;;
5295;SDS011;2670;42.720;23.336;2023-05-13T00:17:35;5.47;;;3.63;;
5295;SDS011;2670;42.720;23.336;2023-05-13T00:20:02;4.20;;;3.10;;
5295;SDS011;2670;42.720;23.336;2023-05-13T00:22:29;7.60;;;3.83;;
5295;SDS011;2670;42.720;23.336;2023-05-13T00:24:55;4.83;;;3.03;;
5295;SDS011;2670;42.720;23.336;2023-05-13T00:27:23;6.30;;;3.77;;
5295;SDS011;2670;42.720;23.336;2023-05-13T00:29:50;6.37;;;3.60;;
5295;SDS011;2670;42.720;23.336;2023-05-13T00:32:17;6.57;;;3.80;;
5295;SDS011;2670;42.720;23.336;2023-05-13T00:34:43;4.50;;;3.20;;
5295;SDS011;2670;42.720;23.336;2023-05-13T00:37:10;5.70;;;4.20;;
5295;SDS011;2670;42.720;23.336;2023-05-13T00:39:38;4.23;;;3.30;;
5295;SDS011;2670;42.720;23.336;2023-05-13T00:42:05;4.27;;;3.63;;
5295;SDS011;2670;42.720;23.336;2023-05-13T00:44:33;5.53;;;3.20;;
5295;SDS011;2670;42.720;23.336;2023-05-13T00:46:59;4.77;;;3.30;;
5295;SDS011;2670;42.720;23.336;2023-05-13T00:49:26;5.13;;;3.00;;
5295;SDS011;2670;42.720;23.336;2023-05-13T00:51:53;12.13;;;3.43;;
5295;SDS011;2670;42.720;23.336;2023-05-13T00:54:20;5.73;;;3.07;;
5295;SDS011;2670;42.720;23.336;2023-05-13T00:56:47;4.27;;;3.17;;
5295;SDS011;2670;42.720;23.336;2023-05-13T00:59:18;4.67;;;3.07;;
5295;SDS011;2670;42.720;23.336;2023-05-13T01:01:48;5.83;;;2.83;;
5295;SDS011;2670;42.720;23.336;2023-05-13T01:04:24;6.20;;;2.83;;
5295;SDS011;2670;42.720;23.336;2023-05-13T01:06:58;7.40;;;3.00;;
5295;SDS011;2670;42.720;23.336;2023-05-13T01:09:39;4.03;;;2.60;;
5295;SDS011;2670;42.720;23.336;2023-05-13T01:12:15;5.50;;;3.23;;
5295;SDS011;2670;42.720;23.336;2023-05-13T01:14:47;7.77;;;2.90;;
5295;SDS011;2670;42.720;23.336;2023-05-13T01:17:19;4.93;;;2.97;;
5295;SDS011;2670;42.720;23.336;2023-05-13T01:19:53;3.33;;;2.63;;
5295;SDS011;2670;42.720;23.336;2023-05-13T01:22:24;6.53;;;3.33;;
5295;SDS011;2670;42.720;23.336;2023-05-13T01:24:51;9.17;;;2.90;;
5295;SDS011;2670;42.720;23.336;2023-05-13T01:27:18;2.77;;;2.47;;
5295;SDS011;2670;42.720;23.336;2023-05-13T01:29:46;3.13;;;2.60;;
5295;SDS011;2670;42.720;23.336;2023-05-13T01:32:14;5.93;;;3.30;;
5295;SDS011;2670;42.720;23.336;2023-05-13T01:34:41;3.30;;;2.70;;
5295;SDS011;2670;42.720;23.336;2023-05-13T01:37:09;6.00;;;2.90;;
5295;SDS011;2670;42.720;23.336;2023-05-13T01:39:37;3.60;;;2.57;;
5295;SDS011;2670;42.720;23.336;2023-05-13T01:42:04;3.80;;;2.67;;
5295;SDS011;2670;42.720;23.336;2023-05-13T01:44:31;6.10;;;2.60;;
5295;SDS011;2670;42.720;23.336;2023-05-13T01:46:58;2.97;;;2.67;;
5295;SDS011;2670;42.720;23.336;2023-05-13T01:49:24;4.27;;;2.70;;
5295;SDS011;2670;42.720;23.336;2023-05-13T01:51:51;5.80;;;2.63;;
5295;SDS011;2670;42.720;23.336;2023-05-13T01:54:18;5.37;;;3.00;;
5295;SDS011;2670;42.720;23.336;2023-05-13T01:56:46;2.43;;;2.17;;
5295;SDS011;2670;42.720;23.336;2023-05-13T01:59:12;3.40;;;2.80;;
5295;SDS011;2670;42.720;23.336;2023-05-13T02:01:39;4.20;;;2.53;;
5295;SDS011;2670;42.720;23.336;2023-05-13T02:04:06;3.87;;;2.43;;
5295;SDS011;2670;42.720;23.336;2023-05-13T02:06:32;3.63;;;2.70;;
5295;SDS011;2670;42.720;23.336;2023-05-13T02:08:59;2.40;;;2.10;;
5295;SDS011;2670;42.720;23.336;2023-05-13T02:11:26;4.43;;;2.50;;
5295;SDS011;2670;42.720;23.336;2023-05-13T02:13:54;3.13;;;2.83;;
5295;SDS011;2670;42.720;23.336;2023-05-13T02:16:20;5.10;;;2.77;;
5295;SDS011;2670;42.720;23.336;2023-05-13T02:18:47;4.03;;;2.73;;
5295;SDS011;2670;42.720;23.336;2023-05-13T02:21:14;3.40;;;2.53;;
5295;SDS011;2670;42.720;23.336;2023-05-13T02:23:40;13.47;;;2.90;;
5295;SDS011;2670;42.720;23.336;2023-05-13T02:26:07;3.57;;;2.33;;
5295;SDS011;2670;42.720;23.336;2023-05-13T02:28:34;2.93;;;2.63;;
5295;SDS011;2670;42.720;23.336;2023-05-13T02:31:03;5.40;;;3.00;;
5295;SDS011;2670;42.720;23.336;2023-05-13T02:33:29;3.60;;;2.73;;
5295;SDS011;2670;42.720;23.336;2023-05-13T02:35:56;7.23;;;3.10;;
5295;SDS011;2670;42.720;23.336;2023-05-13T02:38:23;6.27;;;2.63;;
5295;SDS011;2670;42.720;23.336;2023-05-13T02:40:49;5.33;;;2.70;;
5295;SDS011;2670;42.720;23.336;2023-05-13T02:43:16;4.20;;;3.17;;
5295;SDS011;2670;42.720;23.336;2023-05-13T02:45:45;4.40;;;2.80;;
5295;SDS011;2670;42.720;23.336;2023-05-13T02:48:13;5.80;;;3.30;;
5295;SDS011;2670;42.720;23.336;2023-05-13T02:50:40;4.23;;;2.70;;
5295;SDS011;2670;42.720;23.336;2023-05-13T02:53:06;3.20;;;2.50;;
5295;SDS011;2670;42.720;23.336;2023-05-13T02:55:33;4.23;;;2.83;;
5295;SDS011;2670;42.720;23.336;2023-05-13T02:58:00;5.70;;;2.50;;
5295;SDS011;2670;42.720;23.336;2023-05-13T03:00:26;8.77;;;2.60;;
5295;SDS011;2670;42.720;23.336;2023-05-13T03:02:53;4.73;;;2.60;;
5295;SDS011;2670;42.720;23.336;2023-05-13T03:05:21;5.73;;;2.83;;
5295;SDS011;2670;42.720;23.336;2023-05-13T03:07:48;4.57;;;2.63;;
5295;SDS011;2670;42.720;23.336;2023-05-13T03:10:15;4.07;;;2.33;;
5295;SDS011;2670;42.720;23.336;2023-05-13T03:12:42;3.67;;;2.60;;
5295;SDS011;2670;42.720;23.336;2023-05-13T03:15:09;5.40;;;2.70;;
5295;SDS011;2670;42.720;23.336;2023-05-13T03:17:36;3.47;;;2.40;;
5295;SDS011;2670;42.720;23.336;2023-05-13T03:20:03;3.67;;;2.97;;
5295;SDS011;2670;42.720;23.336;2023-05-13T03:22:31;3.27;;;2.60;;
5295;SDS011;2670;42.720;23.336;2023-05-13T03:24:58;7.80;;;3.30;;
5295;SDS011;2670;42.720;23.336;2023-05-13T03:27:25;5.10;;;3.23;;
5295;SDS011;2670;42.720;23.336;2023-05-13T03:29:51;7.33;;;3.40;;
5295;SDS011;2670;42.720;23.336;2023-05-13T03:32:18;3.90;;;3.50;;
5295;SDS011;2670;42.720;23.336;2023-05-13T03:34:45;8.73;;;3.73;;
5295;SDS011;2670;42.720;23.336;2023-05-13T03:37:11;5.07;;;3.77;;
5295;SDS011;2670;42.720;23.336;2023-05-13T03:39:39;5.77;;;3.43;;
5295;SDS011;2670;42.720;23.336;2023-05-13T03:42:06;4.93;;;3.30;;
5295;SDS011;2670;42.720;23.336;2023-05-13T03:44:33;8.60;;;3.50;;
5295;SDS011;2670;42.720;23.336;2023-05-13T03:47:00;8.10;;;3.43;;
5295;SDS011;2670;42.720;23.336;2023-05-13T03:49:26;6.10;;;3.97;;
5295;SDS011;2670;42.720;23.336;2023-05-13T03:51:53;11.83;;;4.23;;
5295;SDS011;2670;42.720;23.336;2023-05-13T03:54:20;5.37;;;3.23;;
5295;SDS011;2670;42.720;23.336;2023-05-13T03:56:48;8.30;;;3.33;;
5295;SDS011;2670;42.720;23.336;2023-05-13T03:59:14;5.20;;;3.70;;
5295;SDS011;2670;42.720;23.336;2023-05-13T04:01:41;7.10;;;4.37;;
5295;SDS011;2670;42.720;23.336;2023-05-13T04:04:08;7.70;;;4.10;;
5295;SDS011;2670;42.720;23.336;2023-05-13T04:06:34;4.80;;;3.30;;
5295;SDS011;2670;42.720;23.336;2023-05-13T04:09:01;3.97;;;3.00;;
5295;SDS011;2670;42.720;23.336;2023-05-13T04:11:28;3.57;;;2.90;;
5295;SDS011;2670;42.720;23.336;2023-05-13T04:13:56;5.23;;;3.83;;
5295;SDS011;2670;42.720;23.336;2023-05-13T04:16:23;13.37;;;4.00;;
5295;SDS011;2670;42.720;23.336;2023-05-13T04:18:50;13.20;;;4.17;;
5295;SDS011;2670;42.720;23.336;2023-05-13T04:21:17;6.20;;;3.37;;
5295;SDS011;2670;42.720;23.336;2023-05-13T04:23:43;6.30;;;4.57;;
5295;SDS011;2670;42.720;23.336;2023-05-13T04:26:10;6.93;;;4.20;;
5295;SDS011;2670;42.720;23.336;2023-05-13T04:28:37;7.90;;;4.57;;
5295;SDS011;2670;42.720;23.336;2023-05-13T04:31:05;5.00;;;3.50;;
5295;SDS011;2670;42.720;23.336;2023-05-13T04:33:31;11.10;;;3.87;;
5295;SDS011;2670;42.720;23.336;2023-05-13T04:35:58;5.80;;;4.30;;
5295;SDS011;2670;42.720;23.336;2023-05-13T04:38:25;5.00;;;3.60;;
5295;SDS011;2670;42.720;23.336;2023-05-13T04:40:52;7.77;;;3.90;;
5295;SDS011;2670;42.720;23.336;2023-05-13T04:43:19;6.13;;;3.83;;
5295;SDS011;2670;42.720;23.336;2023-05-13T04:45:46;5.40;;;4.20;;
5295;SDS011;2670;42.720;23.336;2023-05-13T04:48:14;6.60;;;4.37;;
5295;SDS011;2670;42.720;23.336;2023-05-13T04:50:43;8.47;;;4.43;;
5295;SDS011;2670;42.720;23.336;2023-05-13T04:53:10;10.73;;;5.63;;
5295;SDS011;2670;42.720;23.336;2023-05-13T04:55:37;11.10;;;6.37;;
5295;SDS011;2670;42.720;23.336;2023-05-13T04:58:04;6.70;;;5.13;;
5295;SDS011;2670;42.720;23.336;2023-05-13T05:00:31;8.13;;;4.73;;
5295;SDS011;2670;42.720;23.336;2023-05-13T05:02:58;6.20;;;3.90;;
5295;SDS011;2670;42.720;23.336;2023-05-13T05:05:26;6.57;;;4.13;;
5295;SDS011;2670;42.720;23.336;2023-05-13T05:07:52;6.73;;;3.13;;
5295;SDS011;2670;42.720;23.336;2023-05-13T05:10:19;12.23;;;3.30;;
5295;SDS011;2670;42.720;23.336;2023-05-13T05:12:46;6.67;;;3.83;;
5295;SDS011;2670;42.720;23.336;2023-05-13T05:15:12;6.00;;;3.53;;
5295;SDS011;2670;42.720;23.336;2023-05-13T05:17:40;11.33;;;4.33;;
5295;SDS011;2670;42.720;23.336;2023-05-13T05:20:07;5.87;;;3.57;;
5295;SDS011;2670;42.720;23.336;2023-05-13T05:22:36;5.70;;;2.70;;
5295;SDS011;2670;42.720;23.336;2023-05-13T05:25:06;4.37;;;3.10;;
5295;SDS011;2670;42.720;23.336;2023-05-13T05:27:33;4.57;;;3.10;;
5295;SDS011;2670;42.720;23.336;2023-05-13T05:30:00;2.50;;;2.13;;
5295;SDS011;2670;42.720;23.336;2023-05-13T05:32:26;7.33;;;2.60;;
5295;SDS011;2670;42.720;23.336;2023-05-13T05:34:53;4.40;;;2.70;;
5295;SDS011;2670;42.720;23.336;2023-05-13T05:37:20;4.03;;;2.70;;
5295;SDS011;2670;42.720;23.336;2023-05-13T05:39:48;3.10;;;2.70;;
5295;SDS011;2670;42.720;23.336;2023-05-13T05:42:14;5.37;;;2.97;;
5295;SDS011;2670;42.720;23.336;2023-05-13T05:44:41;7.90;;;2.90;;
5295;SDS011;2670;42.720;23.336;2023-05-13T05:47:08;6.03;;;2.70;;
5295;SDS011;2670;42.720;23.336;2023-05-13T05:49:34;5.40;;;2.60;;
5295;SDS011;2670;42.720;23.336;2023-05-13T05:52:01;2.47;;;2.03;;
5295;SDS011;2670;42.720;23.336;2023-05-13T05:54:28;3.30;;;2.43;;
5295;SDS011;2670;42.720;23.336;2023-05-13T05:56:56;4.87;;;2.50;;
5295;SDS011;2670;42.720;23.336;2023-05-13T05:59:23;2.97;;;2.33;;
5295;SDS011;2670;42.720;23.336;2023-05-13T06:01:50;7.10;;;2.40;;
5295;SDS011;2670;42.720;23.336;2023-05-13T06:04:16;2.77;;;2.37;;
5295;SDS011;2670;42.720;23.336;2023-05-13T06:06:43;4.37;;;2.67;;
5295;SDS011;2670;42.720;23.336;2023-05-13T06:09:10;3.43;;;3.13;;
5295;SDS011;2670;42.720;23.336;2023-05-13T06:11:36;4.50;;;2.90;;
5295;SDS011;2670;42.720;23.336;2023-05-13T06:14:05;6.03;;;2.63;;
5295;SDS011;2670;42.720;23.336;2023-05-13T06:16:31;3.90;;;3.10;;
5295;SDS011;2670;42.720;23.336;2023-05-13T06:18:58;5.17;;;3.00;;
5295;SDS011;2670;42.720;23.336;2023-05-13T06:21:24;2.93;;;2.33;;
5295;SDS011;2670;42.720;23.336;2023-05-13T06:23:51;5.43;;;2.83;;
5295;SDS011;2670;42.720;23.336;2023-05-13T06:26:18;3.23;;;2.87;;
5295;SDS011;2670;42.720;23.336;2023-05-13T06:28:45;5.00;;;2.70;;
5295;SDS011;2670;42.720;23.336;2023-05-13T06:31:13;5.60;;;2.40;;
5295;SDS011;2670;42.720;23.336;2023-05-13T06:33:40;3.20;;;2.00;;
5295;SDS011;2670;42.720;23.336;2023-05-13T06:36:21;11.63;;;3.30;;
5295;SDS011;2670;42.720;23.336;2023-05-13T06:38:48;4.67;;;2.80;;
5295;SDS011;2670;42.720;23.336;2023-05-13T06:41:15;4.10;;;2.63;;
5295;SDS011;2670;42.720;23.336;2023-05-13T06:43:42;3.17;;;2.00;;
5295;SDS011;2670;42.720;23.336;2023-05-13T06:46:10;6.90;;;3.20;;
5295;SDS011;2670;42.720;23.336;2023-05-13T06:48:38;5.30;;;2.53;;
5295;SDS011;2670;42.720;23.336;2023-05-13T06:51:04;2.93;;;2.63;;
5295;SDS011;2670;42.720;23.336;2023-05-13T06:53:31;10.33;;;3.17;;
5295;SDS011;2670;42.720;23.336;2023-05-13T06:55:58;7.27;;;3.70;;
5295;SDS011;2670;42.720;23.336;2023-05-13T06:58:25;4.13;;;2.70;;
5295;SDS011;2670;42.720;23.336;2023-05-13T07:00:51;3.57;;;1.93;;
5295;SDS011;2670;42.720;23.336;2023-05-13T07:03:18;3.73;;;2.03;;
5295;SDS011;2670;42.720;23.336;2023-05-13T07:05:46;2.10;;;1.90;;
5295;SDS011;2670;42.720;23.336;2023-05-13T07:08:13;4.27;;;2.53;;
5295;SDS011;2670;42.720;23.336;2023-05-13T07:10:42;4.33;;;2.03;;
5295;SDS011;2670;42.720;23.336;2023-05-13T07:13:09;4.00;;;2.20;;
5295;SDS011;2670;42.720;23.336;2023-05-13T07:15:36;3.03;;;2.43;;
5295;SDS011;2670;42.720;23.336;2023-05-13T07:18:03;3.73;;;2.23;;
5295;SDS011;2670;42.720;23.336;2023-05-13T07:20:30;3.03;;;2.00;;
5295;SDS011;2670;42.720;23.336;2023-05-13T07:22:58;3.77;;;2.50;;
5295;SDS011;2670;42.720;23.336;2023-05-13T07:25:24;4.03;;;2.43;;
5295;SDS011;2670;42.720;23.336;2023-05-13T07:27:51;2.80;;;1.90;;
5295;SDS011;2670;42.720;23.336;2023-05-13T07:30:18;5.40;;;2.60;;
5295;SDS011;2670;42.720;23.336;2023-05-13T07:32:45;2.43;;;1.90;;
5295;SDS011;2670;42.720;23.336;2023-05-13T07:35:11;3.90;;;2.40;;
5295;SDS011;2670;42.720;23.336;2023-05-13T07:37:40;4.77;;;2.60;;
5295;SDS011;2670;42.720;23.336;2023-05-13T07:40:08;4.33;;;3.10;;
5295;SDS011;2670;42.720;23.336;2023-05-13T07:42:35;4.20;;;2.80;;
5295;SDS011;2670;42.720;23.336;2023-05-13T07:45:02;8.00;;;2.90;;
5295;SDS011;2670;42.720;23.336;2023-05-13T07:47:29;6.07;;;2.40;;
5295;SDS011;2670;42.720;23.336;2023-05-13T07:49:57;4.20;;;2.70;;
5295;SDS011;2670;42.720;23.336;2023-05-13T07:52:24;5.13;;;3.40;;
5295;SDS011;2670;42.720;23.336;2023-05-13T07:54:51;6.43;;;3.10;;
5295;SDS011;2670;42.720;23.336;2023-05-13T07:57:19;6.77;;;3.07;;
5295;SDS011;2670;42.720;23.336;2023-05-13T07:59:46;7.47;;;4.10;;
5295;SDS011;2670;42.720;23.336;2023-05-13T08:02:13;7.90;;;4.13;;
5295;SDS011;2670;42.720;23.336;2023-05-13T08:04:39;5.80;;;3.67;;
5295;SDS011;2670;42.720;23.336;2023-05-13T08:07:07;4.57;;;3.30;;
5295;SDS011;2670;42.720;23.336;2023-05-13T08:09:36;8.10;;;3.53;;
5295;SDS011;2670;42.720;23.336;2023-05-13T08:12:03;4.40;;;3.40;;
5295;SDS011;2670;42.720;23.336;2023-05-13T08:14:31;8.67;;;4.40;;
5295;SDS011;2670;42.720;23.336;2023-05-13T08:16:58;7.73;;;4.27;;
5295;SDS011;2670;42.720;23.336;2023-05-13T08:19:25;5.70;;;4.30;;
5295;SDS011;2670;42.720;23.336;2023-05-13T08:21:52;6.30;;;3.97;;
5295;SDS011;2670;42.720;23.336;2023-05-13T08:24:18;8.33;;;4.90;;
5295;SDS011;2670;42.720;23.336;2023-05-13T08:26:45;14.10;;;5.67;;
5295;SDS011;2670;42.720;23.336;2023-05-13T08:29:12;8.57;;;5.00;;
5295;SDS011;2670;42.720;23.336;2023-05-13T08:31:41;14.00;;;6.47;;
5295;SDS011;2670;42.720;23.336;2023-05-13T08:34:07;8.80;;;5.13;;
5295;SDS011;2670;42.720;23.336;2023-05-13T08:36:34;5.97;;;4.20;;
5295;SDS011;2670;42.720;23.336;2023-05-13T08:39:01;12.07;;;5.00;;
5295;SDS011;2670;42.720;23.336;2023-05-13T08:41:28;8.33;;;5.00;;
5295;SDS011;2670;42.720;23.336;2023-05-13T08:43:55;6.70;;;4.90;;
5295;SDS011;2670;42.720;23.336;2023-05-13T08:46:23;8.70;;;4.33;;
5295;SDS011;2670;42.720;23.336;2023-05-13T08:48:54;8.40;;;4.47;;
5295;SDS011;2670;42.720;23.336;2023-05-13T08:51:22;8.73;;;5.20;;
5295;SDS011;2670;42.720;23.336;2023-05-13T08:53:49;13.27;;;5.90;;
5295;SDS011;2670;42.720;23.336;2023-05-13T08:56:16;7.87;;;5.03;;
5295;SDS011;2670;42.720;23.336;2023-05-13T08:58:43;11.60;;;5.90;;
5295;SDS011;2670;42.720;23.336;2023-05-13T09:01:10;7.63;;;5.10;;
5295;SDS011;2670;42.720;23.336;2023-05-13T09:03:39;16.63;;;8.93;;
5295;SDS011;2670;42.720;23.336;2023-05-13T09:06:18;10.20;;;5.40;;
5295;SDS011;2670;42.720;23.336;2023-05-13T09:08:46;8.20;;;5.40;;
5295;SDS011;2670;42.720;23.336;2023-05-13T09:11:13;11.03;;;6.40;;
5295;SDS011;2670;42.720;23.336;2023-05-13T09:13:41;9.90;;;5.83;;
5295;SDS011;2670;42.720;23.336;2023-05-13T09:16:08;9.03;;;5.77;;
5295;SDS011;2670;42.720;23.336;2023-05-13T09:18:37;8.50;;;5.53;;
5295;SDS011;2670;42.720;23.336;2023-05-13T09:21:24;12.97;;;5.60;;
5295;SDS011;2670;42.720;23.336;2023-05-13T09:23:55;7.67;;;5.67;;
5295;SDS011;2670;42.720;23.336;2023-05-13T09:26:37;13.80;;;5.87;;
5295;SDS011;2670;42.720;23.336;2023-05-13T09:29:13;10.27;;;6.33;;
5295;SDS011;2670;42.720;23.336;2023-05-13T09:31:44;7.17;;;5.03;;
5295;SDS011;2670;42.720;23.336;2023-05-13T09:34:13;6.83;;;5.33;;
5295;SDS011;2670;42.720;23.336;2023-05-13T09:36:41;12.00;;;6.70;;
5295;SDS011;2670;42.720;23.336;2023-05-13T09:39:08;6.93;;;5.40;;
5295;SDS011;2670;42.720;23.336;2023-05-13T09:41:36;9.53;;;5.57;;
5295;SDS011;2670;42.720;23.336;2023-05-13T09:44:03;11.47;;;6.10;;
5295;SDS011;2670;42.720;23.336;2023-05-13T09:46:30;9.30;;;5.00;;
5295;SDS011;2670;42.720;23.336;2023-05-13T09:48:58;10.03;;;6.10;;
5295;SDS011;2670;42.720;23.336;2023-05-13T09:51:25;9.67;;;5.70;;
5295;SDS011;2670;42.720;23.336;2023-05-13T09:53:55;12.00;;;6.40;;
5295;SDS011;2670;42.720;23.336;2023-05-13T09:56:28;10.57;;;5.90;;
5295;SDS011;2670;42.720;23.336;2023-05-13T09:58:56;10.67;;;5.70;;
5295;SDS011;2670;42.720;23.336;2023-05-13T10:01:23;13.90;;;6.00;;
5295;SDS011;2670;42.720;23.336;2023-05-13T10:03:52;13.33;;;6.03;;
5295;SDS011;2670;42.720;23.336;2023-05-13T10:06:19;14.10;;;5.60;;
5295;SDS011;2670;42.720;23.336;2023-05-13T10:08:49;12.93;;;5.30;;
5295;SDS011;2670;42.720;23.336;2023-05-13T10:11:18;10.63;;;5.80;;
5295;SDS011;2670;42.720;23.336;2023-05-13T10:13:46;12.33;;;5.70;;
5295;SDS011;2670;42.720;23.336;2023-05-13T10:16:15;8.30;;;5.37;;
5295;SDS011;2670;42.720;23.336;2023-05-13T10:18:43;10.83;;;6.00;;
5295;SDS011;2670;42.720;23.336;2023-05-13T10:21:11;10.43;;;5.63;;
5295;SDS011;2670;42.720;23.336;2023-05-13T10:23:38;12.90;;;5.77;;
5295;SDS011;2670;42.720;23.336;2023-05-13T10:26:04;10.20;;;5.50;;
5295;SDS011;2670;42.720;23.336;2023-05-13T10:28:33;20.00;;;6.47;;
5295;SDS011;2670;42.720;23.336;2023-05-13T10:31:01;10.10;;;6.50;;
5295;SDS011;2670;42.720;23.336;2023-05-13T10:33:28;11.43;;;6.13;;
5295;SDS011;2670;42.720;23.336;2023-05-13T10:35:59;15.67;;;5.50;;
5295;SDS011;2670;42.720;23.336;2023-05-13T10:38:39;14.20;;;6.83;;
5295;SDS011;2670;42.720;23.336;2023-05-13T10:41:25;6.73;;;4.80;;
5295;SDS011;2670;42.720;23.336;2023-05-13T10:44:05;5.87;;;3.77;;
5295;SDS011;2670;42.720;23.336;2023-05-13T10:46:32;7.30;;;5.13;;
5295;SDS011;2670;42.720;23.336;2023-05-13T10:49:03;9.53;;;5.63;;
5295;SDS011;2670;42.720;23.336;2023-05-13T10:51:31;10.67;;;6.30;;
5295;SDS011;2670;42.720;23.336;2023-05-13T10:53:57;9.93;;;6.43;;
5295;SDS011;2670;42.720;23.336;2023-05-13T10:56:25;7.83;;;5.30;;
5295;SDS011;2670;42.720;23.336;2023-05-13T10:58:58;7.60;;;4.87;;
5295;SDS011;2670;42.720;23.336;2023-05-13T11:01:28;7.40;;;5.63;;
5295;SDS011;2670;42.720;23.336;2023-05-13T11:03:56;12.83;;;6.00;;
5295;SDS011;2670;42.720;23.336;2023-05-13T11:06:28;10.57;;;5.80;;
5295;SDS011;2670;42.720;23.336;2023-05-13T11:08:58;8.60;;;6.10;;
5295;SDS011;2670;42.720;23.336;2023-05-13T11:11:27;8.80;;;6.40;;
5295;SDS011;2670;42.720;23.336;2023-05-13T11:14:01;10.67;;;7.37;;
5295;SDS011;2670;42.720;23.336;2023-05-13T11:16:34;10.17;;;5.73;;
5295;SDS011;2670;42.720;23.336;2023-05-13T11:19:01;6.70;;;5.60;;
5295;SDS011;2670;42.720;23.336;2023-05-13T11:21:29;6.37;;;5.27;;
5295;SDS011;2670;42.720;23.336;2023-05-13T11:23:57;8.67;;;4.90;;
5295;SDS011;2670;42.720;23.336;2023-05-13T11:26:40;8.53;;;4.53;;
5295;SDS011;2670;42.720;23.336;2023-05-13T11:29:09;10.00;;;4.73;;
5295;SDS011;2670;42.720;23.336;2023-05-13T11:31:46;7.67;;;5.03;;
5295;SDS011;2670;42.720;23.336;2023-05-13T11:34:14;9.70;;;5.57;;
5295;SDS011;2670;42.720;23.336;2023-05-13T11:36:43;9.53;;;5.90;;
5295;SDS011;2670;42.720;23.336;2023-05-13T11:39:12;10.10;;;6.00;;
5295;SDS011;2670;42.720;23.336;2023-05-13T11:41:41;8.43;;;5.33;;
5295;SDS011;2670;42.720;23.336;2023-05-13T11:44:10;8.33;;;6.00;;
5295;SDS011;2670;42.720;23.336;2023-05-13T11:46:37;7.47;;;5.30;;
5295;SDS011;2670;42.720;23.336;2023-05-13T11:51:58;8.00;;;5.87;;
5295;SDS011;2670;42.720;23.336;2023-05-13T11:54:25;10.37;;;5.70;;
5295;SDS011;2670;42.720;23.336;2023-05-13T11:56:52;7.00;;;5.27;;
5295;SDS011;2670;42.720;23.336;2023-05-13T11:59:18;10.50;;;5.70;;
5295;SDS011;2670;42.720;23.336;2023-05-13T12:01:56;6.87;;;5.20;;
5295;SDS011;2670;42.720;23.336;2023-05-13T12:04:25;7.10;;;5.40;;
5295;SDS011;2670;42.720;23.336;2023-05-13T12:06:54;6.70;;;5.60;;
5295;SDS011;2670;42.720;23.336;2023-05-13T12:09:22;13.13;;;6.07;;
5295;SDS011;2670;42.720;23.336;2023-05-13T12:11:49;7.27;;;5.30;;
5295;SDS011;2670;42.720;23.336;2023-05-13T12:14:16;9.77;;;5.30;;
5295;SDS011;2670;42.720;23.336;2023-05-13T12:16:44;8.70;;;5.70;;
5295;SDS011;2670;42.720;23.336;2023-05-13T12:19:11;9.30;;;5.37;;
5295;SDS011;2670;42.720;23.336;2023-05-13T12:21:38;12.50;;;6.50;;
5295;SDS011;2670;42.720;23.336;2023-05-13T12:24:16;6.93;;;5.10;;
5295;SDS011;2670;42.720;23.336;2023-05-13T12:26:43;7.40;;;5.40;;
5295;SDS011;2670;42.720;23.336;2023-05-13T12:29:11;8.90;;;5.30;;
5295;SDS011;2670;42.720;23.336;2023-05-13T12:31:39;10.83;;;5.10;;
5295;SDS011;2670;42.720;23.336;2023-05-13T12:34:06;10.97;;;5.90;;
5295;SDS011;2670;42.720;23.336;2023-05-13T12:36:35;7.67;;;5.50;;
5295;SDS011;2670;42.720;23.336;2023-05-13T12:39:03;11.13;;;5.43;;
5295;SDS011;2670;42.720;23.336;2023-05-13T12:41:32;6.93;;;4.70;;
5295;SDS011;2670;42.720;23.336;2023-05-13T12:44:00;7.63;;;4.50;;
5295;SDS011;2670;42.720;23.336;2023-05-13T12:46:27;10.10;;;5.80;;
5295;SDS011;2670;42.720;23.336;2023-05-13T12:48:55;5.93;;;5.20;;
5295;SDS011;2670;42.720;23.336;2023-05-13T12:51:22;5.97;;;5.00;;
5295;SDS011;2670;42.720;23.336;2023-05-13T12:53:49;6.60;;;5.40;;
5295;SDS011;2670;42.720;23.336;2023-05-13T12:56:18;12.70;;;4.93;;
5295;SDS011;2670;42.720;23.336;2023-05-13T12:58:46;9.07;;;5.13;;
5295;SDS011;2670;42.720;23.336;2023-05-13T13:01:13;9.43;;;5.13;;
5295;SDS011;2670;42.720;23.336;2023-05-13T13:03:41;6.53;;;4.93;;
5295;SDS011;2670;42.720;23.336;2023-05-13T13:06:08;7.63;;;4.53;;
5295;SDS011;2670;42.720;23.336;2023-05-13T13:08:34;7.60;;;4.90;;
5295;SDS011;2670;42.720;23.336;2023-05-13T13:11:01;5.70;;;4.23;;
5295;SDS011;2670;42.720;23.336;2023-05-13T13:13:29;7.60;;;4.80;;
5295;SDS011;2670;42.720;23.336;2023-05-13T13:15:58;11.83;;;4.83;;
5295;SDS011;2670;42.720;23.336;2023-05-13T13:18:24;4.73;;;4.27;;
5295;SDS011;2670;42.720;23.336;2023-05-13T13:20:52;5.90;;;4.50;;
5295;SDS011;2670;42.720;23.336;2023-05-13T13:23:20;22.53;;;4.50;;
5295;SDS011;2670;42.720;23.336;2023-05-13T13:25:47;9.03;;;4.80;;
5295;SDS011;2670;42.720;23.336;2023-05-13T13:28:13;8.10;;;5.10;;
5295;SDS011;2670;42.720;23.336;2023-05-13T13:30:40;12.37;;;5.40;;
5295;SDS011;2670;42.720;23.336;2023-05-13T13:33:12;6.10;;;4.80;;
5295;SDS011;2670;42.720;23.336;2023-05-13T13:35:41;5.10;;;4.50;;
5295;SDS011;2670;42.720;23.336;2023-05-13T13:38:09;9.33;;;4.10;;
5295;SDS011;2670;42.720;23.336;2023-05-13T13:40:36;7.00;;;4.90;;
5295;SDS011;2670;42.720;23.336;2023-05-13T13:43:02;15.10;;;4.87;;
5295;SDS011;2670;42.720;23.336;2023-05-13T13:45:29;4.80;;;4.30;;
5295;SDS011;2670;42.720;23.336;2023-05-13T13:47:56;4.00;;;3.60;;
5295;SDS011;2670;42.720;23.336;2023-05-13T13:50:24;5.87;;;4.17;;
5295;SDS011;2670;42.720;23.336;2023-05-13T13:52:54;7.60;;;4.20;;
5295;SDS011;2670;42.720;23.336;2023-05-13T13:55:21;7.10;;;4.57;;
5295;SDS011;2670;42.720;23.336;2023-05-13T13:57:48;5.80;;;4.33;;
5295;SDS011;2670;42.720;23.336;2023-05-13T14:00:16;7.10;;;4.80;;
5295;SDS011;2670;42.720;23.336;2023-05-13T14:02:43;7.77;;;4.33;;
5295;SDS011;2670;42.720;23.336;2023-05-13T14:05:10;6.23;;;4.37;;
5295;SDS011;2670;42.720;23.336;2023-05-13T14:07:38;5.73;;;4.13;;
5295;SDS011;2670;42.720;23.336;2023-05-13T14:10:06;5.10;;;4.20;;
5295;SDS011;2670;42.720;23.336;2023-05-13T14:12:33;7.27;;;4.07;;
5295;SDS011;2670;42.720;23.336;2023-05-13T14:15:00;5.47;;;4.47;;
5295;SDS011;2670;42.720;23.336;2023-05-13T14:17:27;5.10;;;4.30;;
5295;SDS011;2670;42.720;23.336;2023-05-13T14:19:54;6.40;;;4.10;;
5295;SDS011;2670;42.720;23.336;2023-05-13T14:22:21;5.80;;;3.70;;
5295;SDS011;2670;42.720;23.336;2023-05-13T14:24:50;3.63;;;3.27;;
5295;SDS011;2670;42.720;23.336;2023-05-13T14:27:17;7.23;;;3.77;;
5295;SDS011;2670;42.720;23.336;2023-05-13T14:29:44;7.93;;;4.00;;
5295;SDS011;2670;42.720;23.336;2023-05-13T14:32:12;5.30;;;4.07;;
5295;SDS011;2670;42.720;23.336;2023-05-13T14:34:38;5.93;;;3.30;;
5295;SDS011;2670;42.720;23.336;2023-05-13T14:37:05;5.33;;;3.77;;
5295;SDS011;2670;42.720;23.336;2023-05-13T14:39:32;9.67;;;4.67;;
5295;SDS011;2670;42.720;23.336;2023-05-13T14:42:00;8.57;;;4.50;;
5295;SDS011;2670;42.720;23.336;2023-05-13T14:44:27;7.20;;;4.53;;
5295;SDS011;2670;42.720;23.336;2023-05-13T14:46:54;5.67;;;3.80;;
5295;SDS011;2670;42.720;23.336;2023-05-13T14:49:21;8.97;;;4.20;;
5295;SDS011;2670;42.720;23.336;2023-05-13T14:51:47;5.43;;;3.90;;
5295;SDS011;2670;42.720;23.336;2023-05-13T14:54:14;5.97;;;3.83;;
5295;SDS011;2670;42.720;23.336;2023-05-13T14:56:41;7.10;;;3.80;;
5295;SDS011;2670;42.720;23.336;2023-05-13T14:59:10;6.37;;;3.50;;
5295;SDS011;2670;42.720;23.336;2023-05-13T15:01:37;4.60;;;3.90;;
5295;SDS011;2670;42.720;23.336;2023-05-13T15:04:03;6.50;;;3.83;;